createdAt,value
2022-12-17T00:05:16.335Z,40.53
2022-12-17T00:10:36.349Z,37.90
2022-12-17T00:15:56.370Z,26.02
2022-12-17T00:21:17.519Z,32.10
2022-12-17T00:26:39.120Z,34.20
2022-12-17T00:32:00.209Z,25.63
2022-12-17T00:37:20.130Z,28.57
2022-12-17T00:42:40.034Z,28.00
2022-12-17T00:48:00.018Z,28.10
2022-12-17T00:53:19.860Z,28.05
2022-12-17T00:58:40.173Z,30.88
2022-12-17T01:04:00.166Z,27.00
2022-12-17T01:09:19.939Z,31.48
2022-12-17T01:14:39.775Z,30.90
2022-12-17T01:19:59.471Z,26.10
2022-12-17T01:25:19.444Z,29.27
2022-12-17T01:30:39.227Z,46.10
2022-12-17T01:35:59.141Z,25.40
2022-12-17T01:41:19.225Z,31.52
2022-12-17T01:46:39.970Z,26.50
2022-12-17T01:51:59.725Z,22.75
2022-12-17T01:57:20.219Z,27.87
2022-12-17T02:02:40.045Z,30.55
2022-12-17T02:08:16.800Z,28.23
2022-12-17T02:13:42.487Z,26.70
2022-12-17T02:19:05.158Z,23.77
2022-12-17T02:24:35.652Z,27.87
2022-12-17T02:30:01.019Z,28.05
2022-12-17T02:35:22.853Z,24.58
2022-12-17T02:40:43.197Z,26.42
2022-12-17T02:46:03.450Z,23.95
2022-12-17T02:51:23.594Z,25.97
2022-12-17T02:57:00.053Z,27.50
2022-12-17T03:02:19.899Z,25.65
2022-12-17T03:07:40.077Z,24.33
2022-12-17T03:12:59.972Z,26.48
2022-12-17T03:18:19.818Z,23.10
2022-12-17T03:23:39.820Z,23.83
2022-12-17T03:28:59.706Z,24.52
2022-12-17T03:34:19.800Z,23.52
2022-12-17T03:39:39.709Z,25.67
2022-12-17T03:44:59.518Z,22.70
2022-12-17T03:50:19.339Z,22.65
2022-12-17T03:55:39.155Z,22.05
2022-12-17T04:00:58.929Z,22.67
2022-12-17T04:06:19.101Z,22.55
2022-12-17T04:11:39.025Z,20.57
2022-12-17T04:16:58.842Z,26.50
2022-12-17T04:22:18.666Z,25.10
2022-12-17T04:27:38.624Z,26.10
2022-12-17T04:32:58.351Z,22.80
2022-12-17T04:38:18.374Z,19.50
2022-12-17T04:43:38.420Z,27.05
2022-12-17T04:48:58.996Z,25.25
2022-12-17T04:54:18.856Z,28.65
2022-12-17T04:59:38.718Z,26.48
2022-12-17T05:04:58.587Z,26.53
2022-12-17T05:10:18.676Z,28.23
2022-12-17T05:15:38.550Z,35.38
2022-12-17T05:20:58.495Z,39.53
2022-12-17T05:26:21.303Z,41.15
2022-12-17T05:31:41.161Z,39.20
2022-12-17T05:37:01.280Z,39.58
2022-12-17T05:42:21.362Z,37.08
2022-12-17T05:47:41.154Z,34.97
2022-12-17T05:53:01.006Z,43.50
2022-12-17T05:58:22.255Z,38.43
2022-12-17T06:03:42.471Z,29.85
2022-12-17T06:09:02.975Z,30.98
2022-12-17T06:14:23.075Z,42.88
2022-12-17T06:19:50.452Z,38.05
2022-12-17T06:25:10.218Z,28.07
2022-12-17T06:30:30.038Z,35.80
2022-12-17T06:35:49.905Z,38.28
2022-12-17T06:41:10.315Z,35.97
2022-12-17T06:46:30.170Z,41.08
2022-12-17T06:51:50.149Z,42.70
2022-12-17T06:57:10.056Z,35.08
2022-12-17T07:02:30.063Z,38.67
2022-12-17T07:07:50.289Z,40.88
2022-12-17T07:13:10.488Z,34.55
2022-12-17T07:18:30.287Z,34.37
2022-12-17T07:23:50.213Z,39.88
2022-12-17T07:29:10.062Z,38.63
2022-12-17T07:34:30.208Z,39.10
2022-12-17T07:39:50.019Z,37.70
2022-12-17T07:45:09.969Z,42.23
2022-12-17T07:50:29.866Z,39.40
2022-12-17T07:55:49.688Z,33.97
2022-12-17T08:01:09.559Z,35.63
2022-12-17T08:06:30.296Z,34.50
2022-12-17T08:11:50.339Z,31.03
2022-12-17T08:17:10.268Z,34.95
2022-12-17T08:22:30.435Z,35.78
2022-12-17T08:27:50.298Z,31.08
2022-12-17T08:33:10.302Z,34.53
2022-12-17T08:38:30.161Z,30.57
2022-12-17T08:43:50.096Z,32.65
2022-12-17T08:49:09.924Z,32.20
2022-12-17T08:54:29.893Z,32.40
2022-12-17T08:59:49.739Z,32.50
2022-12-17T09:05:09.998Z,34.67
2022-12-17T09:10:29.787Z,36.03
2022-12-17T09:15:52.743Z,30.55
2022-12-17T09:21:13.181Z,34.38
2022-12-17T09:26:33.234Z,25.90
2022-12-17T09:31:53.324Z,35.10
2022-12-17T09:37:13.190Z,32.40
2022-12-17T09:42:37.282Z,33.10
2022-12-17T09:48:00.505Z,35.25
2022-12-17T09:53:21.352Z,34.13
2022-12-17T09:58:42.808Z,38.83
2022-12-17T10:04:04.365Z,42.40
2022-12-17T10:09:32.680Z,32.60
2022-12-17T10:14:52.477Z,36.13
2022-12-17T10:20:13.471Z,32.90
2022-12-17T10:25:34.891Z,36.10
2022-12-17T10:30:54.787Z,33.67
2022-12-17T10:36:14.747Z,35.80
2022-12-17T10:41:40.564Z,38.55
2022-12-17T10:47:01.122Z,33.00
2022-12-17T10:52:23.991Z,30.77
2022-12-17T10:57:51.964Z,35.22
2022-12-17T11:03:11.755Z,39.55
2022-12-17T11:08:32.839Z,34.97
2022-12-17T11:13:56.155Z,35.55
2022-12-17T11:19:28.419Z,33.23
2022-12-17T11:24:52.093Z,35.22
2022-12-17T11:30:12.377Z,34.53
2022-12-17T11:35:39.425Z,34.83
2022-12-17T11:41:00.372Z,34.50
2022-12-17T11:46:36.337Z,36.20
2022-12-17T11:52:02.894Z,38.85
2022-12-17T11:57:39.132Z,36.15
2022-12-17T12:03:06.748Z,40.65
2022-12-17T12:08:33.182Z,39.17
2022-12-17T12:14:02.618Z,37.80
2022-12-17T12:19:30.159Z,40.75
2022-12-17T12:24:54.291Z,43.40
2022-12-17T12:30:19.554Z,40.13
2022-12-17T12:36:01.668Z,46.30
2022-12-17T12:41:24.311Z,45.77
2022-12-17T12:46:50.732Z,43.65
2022-12-17T12:52:11.676Z,43.90
2022-12-17T12:57:44.191Z,47.78
2022-12-17T13:03:04.149Z,46.92
2022-12-17T13:08:08.565Z,54.87
2022-12-17T13:13:22.518Z,57.92
2022-12-17T13:18:34.928Z,49.30
2022-12-17T13:23:38.030Z,41.60
2022-12-17T13:28:39.992Z,47.60
2022-12-17T13:34:00.317Z,82.77
2022-12-17T13:39:12.019Z,53.97
2022-12-17T13:44:24.069Z,66.95
2022-12-17T13:49:26.935Z,62.22
2022-12-17T13:54:28.192Z,55.58
2022-12-17T13:59:29.792Z,48.87
2022-12-17T14:04:31.625Z,67.82
2022-12-17T14:09:38.742Z,142.60
2022-12-17T14:14:42.462Z,48.08
2022-12-17T14:19:43.877Z,46.15
2022-12-17T14:24:45.450Z,49.43
2022-12-17T14:29:46.713Z,50.53
2022-12-17T14:34:47.966Z,47.67
2022-12-17T14:39:49.291Z,62.28
2022-12-17T14:44:53.143Z,53.58
2022-12-17T14:50:04.340Z,44.60
2022-12-17T14:55:41.235Z,45.03
2022-12-17T15:00:48.315Z,63.22
2022-12-17T15:06:00.832Z,57.50
2022-12-17T15:11:02.190Z,48.78
2022-12-17T15:16:03.638Z,51.43
2022-12-17T15:21:05.046Z,71.32
2022-12-17T15:26:06.290Z,46.45
2022-12-17T15:31:09.065Z,43.65
2022-12-17T15:36:11.053Z,55.25
2022-12-17T15:41:31.197Z,51.63
2022-12-17T15:46:32.454Z,55.83
2022-12-17T15:51:33.757Z,99.38
2022-12-17T15:56:37.068Z,61.35
2022-12-17T16:01:38.440Z,50.78
2022-12-17T16:06:39.806Z,64.73
2022-12-17T16:11:41.127Z,56.53
2022-12-17T16:16:42.348Z,51.58
2022-12-17T16:21:46.949Z,50.55
2022-12-17T16:26:48.521Z,63.17
2022-12-17T16:31:50.112Z,51.37
2022-12-17T16:36:51.389Z,52.15
2022-12-17T16:41:52.635Z,76.82
2022-12-17T16:46:53.989Z,54.47
2022-12-17T16:51:55.575Z,70.60
2022-12-17T16:57:02.580Z,52.70
2022-12-17T17:02:04.038Z,54.05
2022-12-17T17:07:05.701Z,63.60
2022-12-17T17:12:08.485Z,58.15
2022-12-17T17:17:10.943Z,64.78
2022-12-17T17:22:12.203Z,67.40
2022-12-17T17:27:13.512Z,56.80
2022-12-17T17:32:14.878Z,59.33
2022-12-17T17:37:16.205Z,65.70
2022-12-17T17:42:17.429Z,56.70
2022-12-17T17:47:18.748Z,60.17
2022-12-17T17:52:20.054Z,61.35
2022-12-17T17:57:21.377Z,56.40
2022-12-17T18:02:22.719Z,68.43
2022-12-17T18:07:25.558Z,88.50
2022-12-17T18:12:46.395Z,74.00
2022-12-17T18:17:50.159Z,66.43
2022-12-17T18:22:51.584Z,65.40
2022-12-17T18:27:53.705Z,58.67
2022-12-17T18:32:54.947Z,57.28
2022-12-17T18:37:56.234Z,52.40
2022-12-17T18:43:16.499Z,55.47
2022-12-17T18:48:18.518Z,59.50
2022-12-17T18:53:19.784Z,58.38
2022-12-17T18:58:21.050Z,64.07
2022-12-17T19:03:22.389Z,63.73
2022-12-17T19:08:23.727Z,61.58
2022-12-17T19:13:25.035Z,57.80
2022-12-17T19:18:26.331Z,56.08
2022-12-17T19:23:33.397Z,60.92
2022-12-17T19:28:35.317Z,85.80
2022-12-17T19:33:37.407Z,83.28
2022-12-17T19:38:39.587Z,70.80
2022-12-17T19:43:41.714Z,63.67
2022-12-17T19:48:48.241Z,80.25
2022-12-17T19:53:50.292Z,92.60
2022-12-17T19:58:53.695Z,78.15
2022-12-17T20:03:55.600Z,85.97
2022-12-17T20:09:00.748Z,90.85
2022-12-17T20:14:07.554Z,57.03
2022-12-17T20:19:11.439Z,68.87
2022-12-17T20:24:12.725Z,74.22
2022-12-17T20:29:14.047Z,106.93
2022-12-17T20:34:16.043Z,145.68
2022-12-17T20:39:20.692Z,98.00
2022-12-17T20:44:24.758Z,62.03
2022-12-17T20:49:26.005Z,87.88
2022-12-17T20:54:27.394Z,78.97
2022-12-17T20:59:28.668Z,81.03
2022-12-17T21:04:29.994Z,93.38
2022-12-17T21:09:31.266Z,90.43
2022-12-17T21:14:35.690Z,99.93
2022-12-17T21:19:37.289Z,82.20
2022-12-17T21:24:39.339Z,85.82
2022-12-17T21:29:40.611Z,98.82
2022-12-17T21:34:41.914Z,74.77
2022-12-17T21:39:43.846Z,73.28
2022-12-17T21:44:48.307Z,50.75
2022-12-17T21:49:49.759Z,88.18
2022-12-17T21:54:51.058Z,63.03
2022-12-17T21:59:52.398Z,65.67
2022-12-17T22:04:54.560Z,61.88
2022-12-17T22:10:22.260Z,66.22
2022-12-17T22:15:17.528Z,59.20
2022-12-17T22:20:19.532Z,66.43
2022-12-17T22:25:20.822Z,100.87
2022-12-17T22:30:41.078Z,82.15
2022-12-17T22:37:42.532Z,65.22
2022-12-17T22:44:31.458Z,93.95
2022-12-17T22:46:32.070Z,86.53
2022-12-17T22:51:38.434Z,95.97
2022-12-17T22:57:34.223Z,92.90
2022-12-17T23:02:03.482Z,70.57
2022-12-17T23:07:04.825Z,74.38
2022-12-17T23:12:24.616Z,81.35
2022-12-17T23:17:25.868Z,65.70
2022-12-17T23:22:27.133Z,69.68
2022-12-17T23:27:30.740Z,76.00
2022-12-17T23:32:31.984Z,85.95
2022-12-17T23:37:39.355Z,78.38
2022-12-17T23:42:41.267Z,78.13
2022-12-17T23:47:42.613Z,81.40
2022-12-17T23:52:43.882Z,70.13
2022-12-17T23:57:45.113Z,61.38
